createdAt,value
2022-12-28T00:00:37.564Z,10.57
2022-12-28T00:01:39.780Z,10.20
2022-12-28T00:02:42.940Z,10.50
2022-12-28T00:03:45.253Z,15.68
2022-12-28T00:04:48.757Z,12.35
2022-12-28T00:05:50.824Z,11.18
2022-12-28T00:06:53.909Z,14.32
2022-12-28T00:07:56.209Z,7.60
2022-12-28T00:08:59.419Z,11.60
2022-12-28T00:10:01.488Z,10.07
2022-12-28T00:11:11.386Z,13.43
2022-12-28T00:12:17.597Z,13.00
2022-12-28T00:13:19.630Z,10.35
2022-12-28T00:14:22.696Z,10.55
2022-12-28T00:15:24.964Z,10.80
2022-12-28T00:16:39.432Z,10.00
2022-12-28T00:17:41.621Z,12.20
2022-12-28T00:18:44.710Z,12.35
2022-12-28T00:19:46.800Z,12.73
2022-12-28T00:20:58.314Z,9.77
2022-12-28T00:22:01.454Z,13.88
2022-12-28T00:23:05.790Z,8.18
2022-12-28T00:24:10.068Z,11.02
2022-12-28T00:25:12.148Z,7.45
2022-12-28T00:26:16.660Z,13.00
2022-12-28T00:27:19.718Z,8.60
2022-12-28T00:28:22.257Z,7.80
2022-12-28T00:29:25.409Z,10.43
2022-12-28T00:30:27.524Z,6.25
2022-12-28T00:31:30.728Z,7.88
2022-12-28T00:32:33.976Z,9.13
2022-12-28T00:33:36.175Z,7.10
2022-12-28T00:34:39.219Z,9.57
2022-12-28T00:35:43.125Z,10.10
2022-12-28T00:37:11.143Z,8.25
2022-12-28T00:38:08.238Z,9.07
2022-12-28T00:39:11.333Z,12.27
2022-12-28T00:40:18.920Z,8.25
2022-12-28T00:42:28.386Z,9.32
2022-12-28T00:43:32.440Z,8.95
2022-12-28T00:44:35.539Z,10.55
2022-12-28T00:45:37.740Z,7.75
2022-12-28T00:46:41.060Z,5.55
2022-12-28T00:47:43.217Z,8.00
2022-12-28T00:48:48.129Z,8.88
2022-12-28T00:49:50.281Z,5.60
2022-12-28T00:50:53.398Z,6.65
2022-12-28T00:51:55.492Z,8.32
2022-12-28T00:52:59.133Z,10.18
2022-12-28T00:54:01.479Z,7.95
2022-12-28T00:55:04.860Z,10.27
2022-12-28T00:56:08.260Z,6.93
2022-12-28T00:57:13.005Z,4.45
2022-12-28T00:58:15.152Z,8.70
2022-12-28T00:59:18.471Z,9.10
2022-12-28T01:00:20.776Z,8.18
2022-12-28T01:01:25.464Z,5.70
2022-12-28T01:02:27.629Z,6.05
2022-12-28T01:03:30.904Z,10.23
2022-12-28T01:04:33.216Z,9.07
2022-12-28T01:05:39.759Z,12.02
2022-12-28T01:06:44.733Z,9.90
2022-12-28T01:07:46.808Z,7.13
2022-12-28T01:08:49.900Z,5.63
2022-12-28T01:09:51.973Z,5.45
2022-12-28T01:10:55.047Z,8.45
2022-12-28T01:11:57.100Z,10.13
2022-12-28T01:13:01.572Z,8.50
2022-12-28T01:14:03.800Z,9.70
2022-12-28T01:15:08.864Z,6.75
2022-12-28T01:16:12.653Z,9.07
2022-12-28T01:17:15.779Z,5.10
2022-12-28T01:18:18.862Z,10.60
2022-12-28T01:19:23.941Z,8.15
2022-12-28T01:20:25.969Z,6.82
2022-12-28T01:21:31.166Z,6.72
2022-12-28T01:22:33.272Z,9.40
2022-12-28T01:23:36.331Z,5.97
2022-12-28T01:24:40.291Z,6.68
2022-12-28T01:25:43.385Z,6.82
2022-12-28T01:26:45.493Z,7.75
2022-12-28T01:27:48.664Z,5.47
2022-12-28T01:28:52.326Z,10.40
2022-12-28T01:29:55.463Z,5.03
2022-12-28T01:30:57.583Z,9.95
2022-12-28T01:32:01.489Z,5.45
2022-12-28T01:33:04.697Z,8.77
2022-12-28T01:34:07.807Z,5.07
2022-12-28T01:35:10.154Z,7.63
2022-12-28T01:36:16.523Z,6.40
2022-12-28T01:37:18.665Z,6.45
2022-12-28T01:38:21.724Z,7.18
2022-12-28T01:39:23.773Z,4.03
2022-12-28T01:40:26.808Z,7.10
2022-12-28T01:41:29.789Z,6.63
2022-12-28T01:42:32.873Z,6.53
2022-12-28T01:43:40.067Z,7.63
2022-12-28T01:44:46.595Z,12.18
2022-12-28T01:45:53.931Z,8.38
2022-12-28T01:47:00.844Z,7.22
2022-12-28T01:48:04.358Z,4.63
2022-12-28T01:49:14.887Z,8.07
2022-12-28T01:50:21.122Z,6.72
2022-12-28T01:51:25.417Z,9.65
2022-12-28T01:52:33.716Z,9.25
2022-12-28T01:53:35.842Z,7.53
2022-12-28T01:54:44.675Z,4.97
2022-12-28T01:55:47.908Z,6.57
2022-12-28T01:56:52.261Z,6.38
2022-12-28T01:57:57.625Z,8.07
2022-12-28T01:59:01.025Z,3.85
2022-12-28T02:00:09.375Z,8.30
2022-12-28T02:01:21.482Z,5.88
2022-12-28T02:02:24.154Z,6.57
2022-12-28T02:03:32.129Z,10.82
2022-12-28T02:04:34.488Z,8.45
2022-12-28T02:05:40.706Z,9.82
2022-12-28T02:06:42.947Z,6.30
2022-12-28T02:07:53.976Z,7.03
2022-12-28T02:09:02.825Z,6.82
2022-12-28T02:10:42.410Z,4.38
2022-12-28T02:11:29.874Z,7.47
2022-12-28T02:12:34.183Z,8.15
2022-12-28T02:13:36.429Z,6.03
2022-12-28T02:14:40.853Z,7.10
2022-12-28T02:15:45.517Z,9.00
2022-12-28T02:16:49.103Z,7.25
2022-12-28T02:17:51.615Z,8.93
2022-12-28T02:18:55.143Z,4.93
2022-12-28T02:19:58.488Z,10.40
2022-12-28T02:21:19.942Z,7.80
2022-12-28T02:22:56.305Z,7.18
2022-12-28T02:24:29.035Z,7.72
2022-12-28T02:25:52.185Z,7.00
2022-12-28T02:27:02.871Z,8.55
2022-12-28T02:28:18.044Z,5.80
2022-12-28T02:29:51.196Z,5.45
2022-12-28T02:31:03.223Z,8.00
2022-12-28T02:32:18.813Z,6.22
2022-12-28T02:33:27.696Z,7.60
2022-12-28T02:34:35.890Z,7.45
2022-12-28T02:35:44.534Z,5.38
2022-12-28T02:36:53.799Z,6.97
2022-12-28T02:38:00.613Z,9.07
2022-12-28T02:39:10.456Z,5.60
2022-12-28T02:40:17.736Z,8.23
2022-12-28T02:41:22.824Z,7.13
2022-12-28T02:42:27.648Z,8.23
2022-12-28T02:43:31.925Z,6.80
2022-12-28T02:44:54.707Z,10.45
2022-12-28T02:46:16.531Z,3.92
2022-12-28T02:47:37.128Z,8.13
2022-12-28T02:49:00.088Z,9.35
2022-12-28T02:50:08.082Z,6.55
2022-12-28T02:51:29.362Z,7.15
2022-12-28T02:52:55.528Z,9.15
2022-12-28T02:54:36.130Z,7.97
2022-12-28T02:56:15.010Z,9.52
2022-12-28T02:57:34.596Z,10.43
2022-12-28T02:59:21.985Z,12.70
2022-12-28T03:00:27.147Z,6.45
2022-12-28T03:01:59.485Z,9.80
2022-12-28T03:03:14.455Z,6.07
2022-12-28T03:04:27.724Z,7.70
2022-12-28T03:05:58.308Z,10.65
2022-12-28T03:07:32.314Z,6.88
2022-12-28T03:08:45.880Z,6.13
2022-12-28T03:09:52.545Z,8.73
2022-12-28T03:11:03.308Z,7.05
2022-12-28T03:13:28.090Z,7.25
2022-12-28T03:14:36.453Z,9.57
2022-12-28T03:15:39.037Z,5.28
2022-12-28T03:17:04.195Z,6.72
2022-12-28T03:18:29.878Z,11.30
2022-12-28T03:19:54.027Z,9.50
2022-12-28T03:21:18.295Z,7.10
2022-12-28T03:22:41.547Z,10.60
2022-12-28T03:24:05.399Z,6.47
2022-12-28T03:25:31.963Z,7.82
2022-12-28T03:26:58.865Z,6.97
2022-12-28T03:28:25.776Z,10.00
2022-12-28T03:29:49.330Z,11.40
2022-12-28T03:31:05.398Z,6.35
2022-12-28T03:32:12.635Z,6.10
2022-12-28T03:33:14.940Z,11.43
2022-12-28T03:34:18.433Z,7.30
2022-12-28T03:35:31.746Z,8.82
2022-12-28T03:36:45.149Z,6.47
2022-12-28T03:37:52.538Z,8.32
2022-12-28T03:39:03.214Z,6.18
2022-12-28T03:41:17.675Z,10.05
2022-12-28T03:42:46.044Z,7.45
2022-12-28T03:43:53.868Z,5.50
2022-12-28T03:45:03.028Z,11.57
2022-12-28T03:46:11.978Z,8.23
2022-12-28T03:47:20.021Z,9.07
2022-12-28T03:48:23.648Z,7.68
2022-12-28T03:49:28.993Z,5.55
2022-12-28T03:50:35.113Z,8.98
2022-12-28T03:51:38.339Z,7.03
2022-12-28T03:52:47.611Z,6.43
2022-12-28T03:53:51.212Z,11.07
2022-12-28T03:54:56.119Z,6.22
2022-12-28T03:56:10.682Z,8.52
2022-12-28T03:57:13.411Z,5.88
2022-12-28T03:58:20.652Z,10.52
2022-12-28T03:59:22.903Z,10.88
2022-12-28T04:00:28.708Z,8.98
2022-12-28T04:01:30.864Z,6.40
2022-12-28T04:02:35.391Z,9.50
2022-12-28T04:03:37.534Z,7.32
2022-12-28T04:04:40.692Z,8.23
2022-12-28T04:05:42.734Z,4.57
2022-12-28T04:06:46.530Z,8.10
2022-12-28T04:07:48.875Z,10.07
2022-12-28T04:08:51.878Z,7.95
2022-12-28T04:09:54.334Z,8.05
2022-12-28T04:11:00.293Z,7.93
2022-12-28T04:12:02.346Z,9.40
2022-12-28T04:13:25.407Z,7.13
2022-12-28T04:14:32.739Z,6.28
2022-12-28T04:15:35.850Z,10.45
2022-12-28T04:16:37.991Z,7.45
2022-12-28T04:17:43.716Z,9.48
2022-12-28T04:18:45.868Z,10.88
2022-12-28T04:19:49.362Z,10.93
2022-12-28T04:20:51.785Z,7.63
2022-12-28T04:21:54.928Z,6.20
2022-12-28T04:22:56.993Z,7.22
2022-12-28T04:24:00.429Z,5.45
2022-12-28T04:25:02.564Z,9.98
2022-12-28T04:26:08.232Z,7.20
2022-12-28T04:27:10.347Z,8.95
2022-12-28T04:28:13.608Z,9.52
2022-12-28T04:29:54.965Z,6.28
2022-12-28T04:31:00.157Z,5.47
2022-12-28T04:32:03.750Z,10.45
2022-12-28T04:33:07.232Z,7.65
2022-12-28T04:34:10.490Z,6.28
2022-12-28T04:35:16.771Z,8.23
2022-12-28T04:36:25.599Z,5.15
2022-12-28T04:37:27.910Z,7.93
2022-12-28T04:38:31.021Z,7.63
2022-12-28T04:39:54.921Z,6.35
2022-12-28T04:40:56.053Z,6.32
2022-12-28T04:41:59.505Z,5.70
2022-12-28T04:43:01.628Z,9.07
2022-12-28T04:44:04.695Z,5.03
2022-12-28T04:45:07.783Z,6.45
2022-12-28T04:46:14.039Z,6.93
2022-12-28T04:47:16.134Z,10.63
2022-12-28T04:48:20.548Z,7.07
2022-12-28T04:49:22.565Z,6.85
2022-12-28T04:50:25.844Z,7.75
2022-12-28T04:51:29.143Z,10.02
2022-12-28T04:52:32.179Z,4.90
2022-12-28T04:53:37.286Z,8.35
2022-12-28T04:54:40.303Z,8.00
2022-12-28T04:55:42.322Z,8.43
2022-12-28T04:56:45.344Z,7.47
2022-12-28T04:57:47.906Z,7.00
2022-12-28T04:58:55.159Z,9.00
2022-12-28T04:59:57.208Z,6.93
2022-12-28T05:01:04.245Z,4.38
2022-12-28T05:02:07.612Z,7.30
2022-12-28T05:03:09.751Z,6.70
2022-12-28T05:04:15.782Z,7.82
2022-12-28T05:05:17.820Z,6.18
2022-12-28T05:06:23.126Z,8.63
2022-12-28T05:07:26.211Z,7.03
2022-12-28T05:08:28.575Z,7.30
2022-12-28T05:09:31.609Z,8.10
2022-12-28T05:10:33.705Z,5.20
2022-12-28T05:11:36.800Z,9.73
2022-12-28T05:12:38.845Z,5.97
2022-12-28T05:13:41.925Z,9.07
2022-12-28T05:14:44.745Z,8.02
2022-12-28T05:15:47.867Z,7.72
2022-12-28T05:16:51.158Z,5.57
2022-12-28T05:17:56.069Z,7.40
2022-12-28T05:18:58.230Z,8.10
2022-12-28T05:20:02.924Z,9.68
2022-12-28T05:21:06.980Z,8.45
2022-12-28T05:22:12.022Z,8.60
2022-12-28T05:23:14.081Z,7.20
2022-12-28T05:24:17.114Z,8.25
2022-12-28T05:25:19.173Z,11.13
2022-12-28T05:26:25.985Z,7.22
2022-12-28T05:27:28.077Z,8.32
2022-12-28T05:28:31.198Z,8.00
2022-12-28T05:29:33.328Z,7.85
2022-12-28T05:30:36.524Z,6.72
2022-12-28T05:31:38.630Z,4.50
2022-12-28T05:32:41.715Z,7.13
2022-12-28T05:33:44.162Z,6.63
2022-12-28T05:34:47.213Z,5.90
2022-12-28T05:35:50.648Z,5.53
2022-12-28T05:36:53.678Z,8.13
2022-12-28T05:37:55.748Z,9.13
2022-12-28T05:38:58.852Z,8.50
2022-12-28T05:40:01.730Z,6.43
2022-12-28T05:41:08.704Z,7.43
2022-12-28T05:42:11.791Z,7.93
2022-12-28T05:43:13.920Z,8.32
2022-12-28T05:44:16.983Z,4.68
2022-12-28T05:45:19.094Z,7.97
2022-12-28T05:46:24.340Z,5.93
2022-12-28T05:47:26.464Z,4.75
2022-12-28T05:48:32.055Z,7.22
2022-12-28T05:49:35.104Z,8.57
2022-12-28T05:50:37.367Z,6.18
2022-12-28T05:51:41.788Z,3.60
2022-12-28T05:52:43.805Z,5.45
2022-12-28T05:53:47.516Z,5.03
2022-12-28T05:54:49.535Z,5.63
2022-12-28T05:55:52.559Z,6.38
2022-12-28T05:56:54.663Z,5.80
2022-12-28T05:57:57.720Z,6.72
2022-12-28T05:59:01.125Z,5.38
2022-12-28T06:00:05.070Z,5.30
2022-12-28T06:02:23.000Z,7.65
2022-12-28T06:03:26.770Z,4.55
2022-12-28T06:04:29.936Z,4.30
2022-12-28T06:05:31.937Z,6.03
2022-12-28T06:06:36.056Z,4.10
2022-12-28T06:07:39.441Z,7.05
2022-12-28T06:08:43.625Z,3.83
2022-12-28T06:09:45.713Z,3.97
2022-12-28T06:10:48.835Z,4.93
2022-12-28T06:11:51.853Z,4.88
2022-12-28T06:12:53.837Z,4.80
2022-12-28T06:13:57.166Z,5.53
2022-12-28T06:14:59.179Z,6.15
2022-12-28T06:16:07.201Z,3.53
2022-12-28T06:17:10.276Z,5.40
2022-12-28T06:18:12.296Z,6.07
2022-12-28T06:19:15.960Z,4.53
2022-12-28T06:20:17.975Z,3.50
2022-12-28T06:21:23.103Z,7.60
2022-12-28T06:22:26.183Z,5.88
2022-12-28T06:23:29.952Z,5.90
2022-12-28T06:24:33.003Z,5.50
2022-12-28T06:25:35.035Z,4.20
2022-12-28T06:26:40.648Z,4.47
2022-12-28T06:27:42.670Z,6.00
2022-12-28T06:28:45.901Z,4.20
2022-12-28T06:29:47.921Z,5.68
2022-12-28T06:30:52.937Z,6.60
2022-12-28T06:31:56.613Z,4.80
2022-12-28T06:32:58.706Z,6.63
2022-12-28T06:34:03.238Z,5.35
2022-12-28T06:35:06.071Z,3.08
2022-12-28T06:36:19.452Z,3.50
2022-12-28T06:37:23.197Z,5.45
2022-12-28T06:38:27.098Z,5.60
2022-12-28T06:39:31.596Z,2.63
2022-12-28T06:41:10.999Z,3.50
2022-12-28T06:41:56.759Z,5.35
2022-12-28T06:42:58.802Z,6.85
2022-12-28T06:44:02.059Z,4.30
2022-12-28T06:45:04.835Z,3.58
2022-12-28T06:46:08.391Z,3.40
2022-12-28T06:47:10.471Z,4.65
2022-12-28T06:48:13.498Z,4.57
2022-12-28T06:49:16.471Z,12.48
2022-12-28T06:50:18.514Z,4.95
2022-12-28T06:51:23.547Z,3.65
2022-12-28T06:52:25.594Z,4.30
2022-12-28T06:53:29.883Z,4.22
2022-12-28T06:54:33.330Z,3.88
2022-12-28T06:55:36.353Z,3.13
2022-12-28T06:56:39.063Z,4.40
2022-12-28T06:57:42.036Z,4.28
2022-12-28T06:58:44.388Z,5.07
2022-12-28T06:59:47.438Z,5.18
2022-12-28T07:00:49.536Z,5.72
2022-12-28T07:01:52.739Z,4.47
2022-12-28T07:02:57.650Z,4.43
2022-12-28T07:04:03.697Z,4.10
2022-12-28T07:05:05.784Z,4.43
2022-12-28T07:06:08.989Z,4.15
2022-12-28T07:07:11.018Z,3.78
2022-12-28T07:08:14.113Z,4.88
2022-12-28T07:09:17.680Z,3.80
2022-12-28T07:10:21.215Z,6.07
2022-12-28T07:11:24.444Z,4.68
2022-12-28T07:12:26.691Z,5.63
2022-12-28T07:13:30.159Z,5.15
2022-12-28T07:14:33.545Z,4.15
2022-12-28T07:15:37.011Z,5.20
2022-12-28T07:17:41.072Z,4.90
2022-12-28T07:18:44.192Z,3.75
2022-12-28T07:19:46.226Z,4.53
2022-12-28T07:20:49.691Z,3.97
2022-12-28T07:21:51.719Z,4.93
2022-12-28T07:22:55.175Z,4.47
2022-12-28T07:23:57.809Z,3.85
2022-12-28T07:25:01.024Z,4.45
2022-12-28T07:26:07.359Z,4.82
2022-12-28T07:27:10.511Z,3.60
2022-12-28T07:28:12.799Z,4.07
2022-12-28T07:29:15.838Z,8.32
2022-12-28T07:30:17.927Z,3.83
2022-12-28T07:31:22.746Z,5.00
2022-12-28T07:32:24.901Z,3.00
2022-12-28T07:33:28.015Z,4.15
2022-12-28T07:34:30.021Z,3.38
2022-12-28T07:35:33.181Z,5.97
2022-12-28T07:36:35.259Z,3.88
2022-12-28T07:37:38.877Z,4.75
2022-12-28T07:38:41.396Z,3.40
2022-12-28T07:39:44.533Z,3.90
2022-12-28T07:40:46.530Z,5.53
2022-12-28T07:41:51.541Z,3.20
2022-12-28T07:42:59.457Z,4.18
2022-12-28T07:44:03.441Z,4.47
2022-12-28T07:45:10.521Z,3.25
2022-12-28T07:46:16.249Z,2.33
2022-12-28T07:47:18.281Z,3.55
2022-12-28T07:48:21.474Z,3.80
2022-12-28T07:49:24.534Z,8.27
2022-12-28T07:50:26.926Z,2.83
2022-12-28T07:51:31.569Z,4.53
2022-12-28T07:52:36.064Z,3.55
2022-12-28T07:53:39.659Z,3.95
2022-12-28T07:54:41.683Z,4.05
2022-12-28T07:55:44.729Z,4.35
2022-12-28T07:56:48.226Z,3.83
2022-12-28T07:57:52.224Z,4.25
2022-12-28T07:58:57.282Z,4.72
2022-12-28T08:00:00.571Z,3.45
2022-12-28T08:01:07.010Z,3.13
2022-12-28T08:02:10.612Z,3.92
2022-12-28T08:03:12.764Z,3.70
2022-12-28T08:04:17.129Z,3.45
2022-12-28T08:05:19.644Z,4.43
2022-12-28T08:06:23.651Z,3.55
2022-12-28T08:07:26.901Z,2.75
2022-12-28T08:08:28.900Z,6.03
2022-12-28T08:09:32.018Z,4.95
2022-12-28T08:10:34.068Z,3.88
2022-12-28T08:11:38.808Z,3.00
2022-12-28T08:12:40.825Z,4.45
2022-12-28T08:13:47.588Z,2.60
2022-12-28T08:14:49.575Z,4.07
2022-12-28T08:15:55.375Z,3.40
2022-12-28T08:16:58.409Z,3.33
2022-12-28T08:18:00.540Z,3.70
2022-12-28T08:19:04.003Z,3.20
2022-12-28T08:20:06.800Z,3.40
2022-12-28T08:21:13.214Z,3.33
2022-12-28T08:22:16.435Z,3.70
2022-12-28T08:23:18.692Z,3.67
2022-12-28T08:24:22.068Z,3.33
2022-12-28T08:25:24.163Z,3.58
2022-12-28T08:26:29.669Z,3.38
2022-12-28T08:27:36.653Z,4.13
2022-12-28T08:28:42.928Z,5.05
2022-12-28T08:29:46.415Z,3.63
2022-12-28T08:30:49.740Z,4.07
2022-12-28T08:31:52.977Z,4.47
2022-12-28T08:32:55.004Z,4.00
2022-12-28T08:33:59.647Z,4.22
2022-12-28T08:35:01.848Z,4.15
2022-12-28T08:36:05.527Z,4.63
2022-12-28T08:37:07.559Z,4.45
2022-12-28T08:38:10.773Z,4.18
2022-12-28T08:39:14.611Z,3.60
2022-12-28T08:40:16.907Z,3.72
2022-12-28T08:41:22.098Z,3.95
2022-12-28T08:42:24.117Z,4.43
2022-12-28T08:43:28.492Z,6.10
2022-12-28T08:44:31.494Z,6.43
2022-12-28T08:45:34.919Z,4.43
2022-12-28T08:46:38.053Z,4.05
2022-12-28T08:47:40.193Z,4.30
2022-12-28T08:48:44.305Z,5.20
2022-12-28T08:49:47.359Z,4.82
2022-12-28T08:50:49.391Z,4.15
2022-12-28T08:51:52.460Z,4.38
2022-12-28T08:52:54.524Z,6.05
2022-12-28T08:53:57.925Z,5.57
2022-12-28T08:55:00.966Z,5.32
2022-12-28T08:56:06.808Z,5.60
2022-12-28T08:57:10.027Z,5.68
2022-12-28T08:58:12.037Z,5.40
2022-12-28T08:59:17.637Z,5.40
2022-12-28T09:00:19.904Z,5.78
2022-12-28T09:01:25.993Z,6.25
2022-12-28T09:02:28.324Z,4.97
2022-12-28T09:03:31.593Z,5.70
2022-12-28T09:04:34.639Z,5.68
2022-12-28T09:05:39.702Z,6.70
2022-12-28T09:06:43.463Z,5.25
2022-12-28T09:07:45.514Z,5.53
2022-12-28T09:09:04.931Z,6.22
2022-12-28T09:10:09.747Z,8.18
2022-12-28T09:11:14.848Z,5.82
2022-12-28T09:12:17.295Z,7.45
2022-12-28T09:13:20.303Z,6.72
2022-12-28T09:14:24.616Z,6.22
2022-12-28T09:15:26.945Z,7.57
2022-12-28T09:16:31.647Z,8.80
2022-12-28T09:17:34.756Z,8.45
2022-12-28T09:18:37.813Z,6.78
2022-12-28T09:19:40.891Z,7.85
2022-12-28T09:20:47.678Z,6.85
2022-12-28T09:21:53.356Z,6.75
2022-12-28T09:22:55.580Z,7.20
2022-12-28T09:23:59.307Z,8.50
2022-12-28T09:25:02.291Z,8.50
2022-12-28T09:26:06.081Z,7.35
2022-12-28T09:27:09.116Z,7.07
2022-12-28T09:28:11.410Z,8.40
2022-12-28T09:29:14.774Z,7.57
2022-12-28T09:30:18.795Z,8.35
2022-12-28T09:31:22.800Z,9.23
2022-12-28T09:32:27.207Z,7.22
2022-12-28T09:34:24.756Z,7.95
2022-12-28T09:35:10.746Z,7.55
2022-12-28T09:36:12.759Z,7.90
2022-12-28T09:37:15.745Z,7.65
2022-12-28T09:38:17.788Z,8.45
2022-12-28T09:39:24.605Z,10.13
2022-12-28T09:40:27.926Z,8.52
2022-12-28T09:41:33.635Z,8.45
2022-12-28T09:42:40.681Z,7.10
2022-12-28T09:43:43.324Z,8.30
2022-12-28T09:44:56.101Z,8.00
2022-12-28T09:45:58.592Z,6.80
2022-12-28T09:47:06.149Z,6.95
2022-12-28T09:48:16.269Z,10.32
2022-12-28T09:49:20.929Z,7.30
2022-12-28T09:50:30.083Z,7.40
2022-12-28T09:51:38.306Z,8.23
2022-12-28T09:52:50.062Z,8.45
2022-12-28T09:53:53.270Z,9.88
2022-12-28T09:54:57.708Z,6.93
2022-12-28T09:56:07.676Z,6.57
2022-12-28T09:57:14.204Z,7.65
2022-12-28T09:58:18.534Z,6.97
2022-12-28T09:59:23.839Z,8.82
2022-12-28T10:00:28.743Z,6.40
2022-12-28T10:01:32.393Z,6.18
2022-12-28T10:02:39.674Z,7.13
2022-12-28T10:03:46.236Z,6.45
2022-12-28T10:04:50.329Z,6.78
2022-12-28T10:05:56.087Z,6.95
2022-12-28T10:07:01.892Z,6.38
2022-12-28T10:08:05.655Z,6.35
2022-12-28T10:09:15.143Z,6.45
2022-12-28T10:10:18.995Z,6.03
2022-12-28T10:11:24.779Z,5.63
2022-12-28T10:12:29.855Z,7.00
2022-12-28T10:13:54.010Z,6.53
2022-12-28T10:15:00.197Z,5.93
2022-12-28T10:16:05.573Z,5.75
2022-12-28T10:17:10.152Z,5.07
2022-12-28T10:18:14.517Z,5.72
2022-12-28T10:19:22.318Z,5.70
2022-12-28T10:20:25.463Z,6.55
2022-12-28T10:21:33.607Z,5.80
2022-12-28T10:22:44.884Z,6.45
2022-12-28T10:25:20.245Z,6.05
2022-12-28T10:26:22.519Z,6.32
2022-12-28T10:27:30.616Z,6.57
2022-12-28T10:28:48.752Z,6.18
2022-12-28T10:29:53.836Z,7.07
2022-12-28T10:31:08.298Z,6.07
2022-12-28T10:32:12.466Z,9.07
2022-12-28T10:33:19.910Z,6.30
2022-12-28T10:34:24.457Z,5.53
2022-12-28T10:35:29.448Z,8.00
2022-12-28T10:36:35.229Z,5.38
2022-12-28T10:37:44.634Z,5.50
2022-12-28T10:38:53.435Z,6.03
2022-12-28T10:39:59.984Z,5.85
2022-12-28T10:41:06.692Z,5.95
2022-12-28T10:42:22.891Z,7.32
2022-12-28T10:43:30.466Z,6.28
2022-12-28T10:44:40.051Z,6.32
2022-12-28T10:45:50.412Z,8.38
2022-12-28T10:46:56.327Z,7.72
2022-12-28T10:47:59.536Z,6.35
2022-12-28T10:49:03.372Z,5.85
2022-12-28T10:50:41.527Z,7.60
2022-12-28T10:52:01.112Z,6.78
2022-12-28T10:53:03.286Z,6.22
2022-12-28T10:54:28.320Z,6.65
2022-12-28T10:55:34.872Z,6.80
2022-12-28T10:56:49.175Z,6.05
2022-12-28T10:59:21.767Z,6.25
2022-12-28T11:00:26.124Z,8.65
2022-12-28T11:01:30.926Z,5.80
2022-12-28T11:02:33.237Z,6.60
2022-12-28T11:03:21.977Z,6.43
2022-12-28T11:03:38.688Z,5.80
2022-12-28T11:04:54.140Z,7.85
2022-12-28T11:06:27.225Z,5.30
2022-12-28T11:07:32.819Z,5.85
2022-12-28T11:08:36.104Z,5.95
2022-12-28T11:09:39.083Z,5.50
2022-12-28T11:10:42.282Z,6.22
2022-12-28T11:11:46.015Z,6.10
2022-12-28T11:12:49.659Z,5.70
2022-12-28T11:13:56.774Z,6.10
2022-12-28T11:15:00.344Z,7.75
2022-12-28T11:16:07.986Z,6.03
2022-12-28T11:17:19.066Z,6.53
2022-12-28T11:18:22.002Z,6.88
2022-12-28T11:19:26.938Z,7.32
2022-12-28T11:20:33.801Z,5.55
2022-12-28T11:21:37.580Z,5.38
2022-12-28T11:22:40.652Z,5.30
2022-12-28T11:23:43.784Z,6.20
2022-12-28T11:24:46.823Z,7.40
2022-12-28T11:25:49.510Z,5.72
2022-12-28T11:26:52.641Z,5.90
2022-12-28T11:27:54.827Z,4.88
2022-12-28T11:28:58.318Z,5.80
2022-12-28T11:30:00.335Z,4.70
2022-12-28T11:31:05.663Z,4.85
2022-12-28T11:32:16.556Z,4.65
2022-12-28T11:34:32.866Z,4.88
2022-12-28T11:35:39.688Z,5.82
2022-12-28T11:36:44.449Z,4.07
2022-12-28T11:37:51.053Z,4.65
2022-12-28T11:38:56.360Z,4.63
2022-12-28T11:39:58.838Z,3.97
2022-12-28T11:41:01.935Z,3.80
2022-12-28T11:42:37.737Z,4.30
2022-12-28T11:43:51.457Z,4.93
2022-12-28T11:44:53.786Z,4.05
2022-12-28T11:45:58.511Z,3.58
2022-12-28T11:47:04.315Z,4.82
2022-12-28T11:48:46.983Z,3.75
2022-12-28T11:49:50.183Z,3.70
2022-12-28T11:50:52.317Z,3.80
2022-12-28T11:52:43.883Z,3.55
2022-12-28T11:53:54.821Z,3.90
2022-12-28T11:54:59.917Z,4.28
2022-12-28T11:56:07.765Z,5.43
2022-12-28T11:57:11.206Z,4.38
2022-12-28T11:58:42.919Z,3.80
2022-12-28T11:59:45.991Z,5.65
2022-12-28T12:00:49.191Z,4.38
2022-12-28T12:01:54.455Z,4.00
2022-12-28T12:02:58.492Z,3.65
2022-12-28T12:04:38.880Z,4.00
2022-12-28T12:05:51.995Z,4.38
2022-12-28T12:07:47.673Z,13.05
2022-12-28T12:08:51.211Z,4.57
2022-12-28T12:10:21.105Z,6.90
2022-12-28T12:11:33.301Z,3.92
2022-12-28T12:12:46.593Z,3.15
2022-12-28T12:13:51.604Z,3.80
2022-12-28T12:14:57.656Z,4.03
2022-12-28T12:16:06.855Z,4.10
2022-12-28T12:17:14.502Z,4.38
2022-12-28T12:18:21.917Z,4.00
2022-12-28T12:19:29.225Z,3.03
2022-12-28T12:20:46.115Z,3.60
2022-12-28T12:22:00.182Z,3.70
2022-12-28T12:23:07.672Z,5.95
2022-12-28T12:24:26.700Z,4.50
2022-12-28T12:25:37.516Z,3.95
2022-12-28T12:26:46.219Z,3.22
2022-12-28T12:27:53.528Z,3.55
2022-12-28T12:29:01.641Z,3.10
2022-12-28T12:30:08.978Z,3.78
2022-12-28T12:31:16.480Z,3.95
2022-12-28T12:32:24.774Z,3.40
2022-12-28T12:33:30.188Z,3.35
2022-12-28T12:34:43.135Z,3.63
2022-12-28T12:35:57.145Z,4.18
2022-12-28T12:37:11.826Z,4.25
2022-12-28T12:38:32.107Z,3.60
2022-12-28T12:39:50.400Z,3.75
2022-12-28T12:41:08.128Z,3.40
2022-12-28T12:42:21.697Z,3.30
2022-12-28T12:43:29.476Z,3.28
2022-12-28T12:44:40.217Z,3.30
2022-12-28T12:47:25.692Z,3.35
2022-12-28T12:48:51.940Z,3.42
2022-12-28T12:50:25.947Z,3.33
2022-12-28T12:51:34.245Z,3.83
2022-12-28T12:52:42.396Z,3.40
2022-12-28T12:54:08.667Z,3.28
2022-12-28T12:55:24.559Z,4.28
2022-12-28T12:56:37.255Z,4.40
2022-12-28T12:57:54.476Z,3.40
2022-12-28T12:59:15.592Z,4.35
2022-12-28T13:00:22.580Z,3.33
2022-12-28T13:01:37.122Z,4.28
2022-12-28T13:02:55.575Z,4.28
2022-12-28T13:04:06.778Z,4.88
2022-12-28T13:05:16.473Z,4.07
2022-12-28T13:06:22.170Z,5.03
2022-12-28T13:07:27.502Z,4.75
2022-12-28T13:08:38.531Z,3.72
2022-12-28T13:09:44.752Z,4.43
2022-12-28T13:10:48.716Z,3.85
2022-12-28T13:11:52.083Z,4.80
2022-12-28T13:12:59.059Z,4.78
2022-12-28T13:14:02.576Z,5.38
2022-12-28T13:15:12.496Z,4.88
2022-12-28T13:16:19.364Z,4.50
2022-12-28T13:17:22.799Z,4.55
2022-12-28T13:19:49.669Z,3.50
2022-12-28T13:20:56.876Z,4.07
2022-12-28T13:22:00.085Z,4.00
2022-12-28T13:23:02.077Z,3.38
2022-12-28T13:24:05.981Z,4.28
2022-12-28T13:25:23.588Z,3.85
2022-12-28T13:26:30.405Z,4.07
2022-12-28T13:27:36.335Z,4.20
2022-12-28T13:28:55.030Z,4.90
2022-12-28T13:29:58.486Z,4.32
2022-12-28T13:31:09.234Z,4.35
2022-12-28T13:33:26.804Z,4.25
2022-12-28T13:34:33.631Z,5.97
2022-12-28T13:35:35.841Z,8.13
2022-12-28T13:36:48.768Z,4.82
2022-12-28T13:38:05.522Z,5.25
2022-12-28T13:39:14.260Z,5.28
2022-12-28T13:40:17.911Z,4.55
2022-12-28T13:41:25.516Z,7.13
2022-12-28T13:44:12.513Z,5.55
2022-12-28T13:45:17.655Z,4.63
2022-12-28T13:46:21.185Z,5.63
2022-12-28T13:47:29.967Z,5.20
2022-12-28T13:48:33.192Z,6.47
2022-12-28T13:49:41.715Z,4.60
2022-12-28T13:50:43.817Z,5.20
2022-12-28T13:51:53.151Z,7.10
2022-12-28T13:52:59.422Z,4.72
2022-12-28T13:54:02.159Z,5.50
2022-12-28T13:55:08.752Z,5.28
2022-12-28T13:56:14.232Z,5.55
2022-12-28T13:57:45.932Z,6.05
2022-12-28T13:58:48.063Z,5.20
2022-12-28T13:59:55.014Z,5.20
2022-12-28T14:00:59.174Z,4.97
2022-12-28T14:02:05.056Z,7.28
2022-12-28T14:03:11.400Z,6.05
2022-12-28T14:05:45.344Z,5.03
2022-12-28T14:06:47.684Z,5.32
2022-12-28T14:07:53.541Z,6.65
2022-12-28T14:08:58.520Z,4.40
2022-12-28T14:10:06.050Z,4.80
2022-12-28T14:11:09.053Z,6.82
2022-12-28T14:12:13.958Z,5.30
2022-12-28T14:13:18.414Z,4.70
2022-12-28T14:14:22.868Z,5.18
2022-12-28T14:15:25.418Z,5.72
2022-12-28T14:16:28.556Z,5.07
2022-12-28T14:17:32.349Z,9.63
2022-12-28T14:18:35.902Z,4.93
2022-12-28T14:19:39.553Z,5.28
2022-12-28T14:20:48.568Z,4.80
2022-12-28T14:21:51.674Z,5.90
2022-12-28T14:22:54.902Z,5.20
2022-12-28T14:24:04.151Z,4.10
2022-12-28T14:25:10.193Z,5.70
2022-12-28T14:26:20.754Z,4.80
2022-12-28T14:27:23.869Z,5.45
2022-12-28T14:28:35.568Z,5.00
2022-12-28T14:29:40.660Z,4.55
2022-12-28T14:30:44.366Z,4.20
2022-12-28T14:31:47.484Z,5.50
2022-12-28T14:32:49.805Z,5.60
2022-12-28T14:33:55.438Z,5.38
2022-12-28T14:34:59.350Z,4.43
2022-12-28T14:36:05.591Z,5.53
2022-12-28T14:37:23.761Z,5.25
2022-12-28T14:38:32.793Z,4.13
2022-12-28T14:39:41.609Z,3.70
2022-12-28T14:40:44.812Z,3.63
2022-12-28T14:41:47.208Z,3.75
2022-12-28T14:42:51.440Z,3.50
2022-12-28T14:43:57.359Z,4.75
2022-12-28T14:45:22.485Z,5.07
2022-12-28T14:46:35.141Z,6.78
2022-12-28T14:47:45.598Z,4.47
2022-12-28T14:48:48.870Z,4.00
2022-12-28T14:49:58.418Z,3.50
2022-12-28T14:51:03.790Z,3.90
2022-12-28T14:52:32.294Z,3.78
2022-12-28T14:53:36.556Z,4.05
2022-12-28T14:54:44.940Z,6.22
2022-12-28T14:55:57.550Z,4.78
2022-12-28T14:57:04.032Z,4.78
2022-12-28T14:58:15.473Z,4.85
2022-12-28T14:59:27.031Z,4.18
2022-12-28T15:00:33.586Z,5.10
2022-12-28T15:01:40.676Z,5.78
2022-12-28T15:02:44.087Z,5.05